sensor_id;sensor_type;location;lat;lon;timestamp;P1;durP1;ratioP1;P2;durP2;ratioP2
49842;SDS011;55559;48.898;9.184;2024-03-23T00:53:57;9.98;;;2.85;;
49842;SDS011;55559;48.898;9.184;2024-03-23T00:56:23;7.13;;;3.25;;
49842;SDS011;55559;48.898;9.184;2024-03-23T00:58:50;11.00;;;2.95;;
49842;SDS011;55559;48.898;9.184;2024-03-23T01:01:16;8.50;;;2.63;;
49842;SDS011;55559;48.898;9.184;2024-03-23T01:03:43;9.48;;;3.40;;
49842;SDS011;55559;48.898;9.184;2024-03-23T01:06:09;16.52;;;3.40;;
49842;SDS011;55559;48.898;9.184;2024-03-23T01:08:36;9.32;;;3.92;;
49842;SDS011;55559;48.898;9.184;2024-03-23T01:11:04;14.75;;;3.17;;
49842;SDS011;55559;48.898;9.184;2024-03-23T01:13:31;6.13;;;3.13;;
49842;SDS011;55559;48.898;9.184;2024-03-23T01:15:57;6.45;;;2.60;;
49842;SDS011;55559;48.898;9.184;2024-03-23T01:18:24;6.63;;;2.55;;
49842;SDS011;55559;48.898;9.184;2024-03-23T01:20:51;11.15;;;3.75;;
49842;SDS011;55559;48.898;9.184;2024-03-23T01:23:19;9.65;;;3.05;;
49842;SDS011;55559;48.898;9.184;2024-03-23T01:25:51;6.75;;;2.95;;
49842;SDS011;55559;48.898;9.184;2024-03-23T01:30:45;4.38;;;2.33;;
49842;SDS011;55559;48.898;9.184;2024-03-23T01:33:12;3.67;;;1.58;;
49842;SDS011;55559;48.898;9.184;2024-03-23T01:35:39;5.43;;;1.83;;
49842;SDS011;55559;48.898;9.184;2024-03-23T01:38:06;6.03;;;2.00;;
49842;SDS011;55559;48.898;9.184;2024-03-23T01:40:32;5.07;;;1.10;;
49842;SDS011;55559;48.898;9.184;2024-03-23T01:43:02;7.25;;;1.98;;
49842;SDS011;55559;48.898;9.184;2024-03-23T01:45:29;5.68;;;1.40;;
49842;SDS011;55559;48.898;9.184;2024-03-23T01:47:58;4.65;;;2.15;;
49842;SDS011;55559;48.898;9.184;2024-03-23T01:50:24;8.05;;;1.95;;
49842;SDS011;55559;48.898;9.184;2024-03-23T01:52:51;4.70;;;1.75;;
49842;SDS011;55559;48.898;9.184;2024-03-23T01:55:17;6.25;;;1.63;;
49842;SDS011;55559;48.898;9.184;2024-03-23T01:57:44;10.80;;;2.80;;
49842;SDS011;55559;48.898;9.184;2024-03-23T02:00:10;3.15;;;1.70;;
49842;SDS011;55559;48.898;9.184;2024-03-23T02:02:41;5.68;;;1.75;;
49842;SDS011;55559;48.898;9.184;2024-03-23T02:05:08;4.45;;;1.77;;
49842;SDS011;55559;48.898;9.184;2024-03-23T02:07:35;5.25;;;1.58;;
49842;SDS011;55559;48.898;9.184;2024-03-23T02:10:01;3.28;;;1.42;;
49842;SDS011;55559;48.898;9.184;2024-03-23T02:12:29;5.03;;;1.05;;
49842;SDS011;55559;48.898;9.184;2024-03-23T02:14:55;2.28;;;0.88;;
49842;SDS011;55559;48.898;9.184;2024-03-23T02:17:22;5.80;;;0.60;;
49842;SDS011;55559;48.898;9.184;2024-03-23T02:19:47;6.18;;;0.45;;
49842;SDS011;55559;48.898;9.184;2024-03-23T02:22:16;2.10;;;0.60;;
49842;SDS011;55559;48.898;9.184;2024-03-23T02:24:44;1.58;;;0.45;;
49842;SDS011;55559;48.898;9.184;2024-03-23T02:27:10;3.42;;;0.82;;
49842;SDS011;55559;48.898;9.184;2024-03-23T02:29:38;2.83;;;0.60;;
49842;SDS011;55559;48.898;9.184;2024-03-23T02:32:04;1.50;;;0.60;;
49842;SDS011;55559;48.898;9.184;2024-03-23T02:34:31;4.78;;;0.63;;
49842;SDS011;55559;48.898;9.184;2024-03-23T02:36:57;4.90;;;0.50;;
49842;SDS011;55559;48.898;9.184;2024-03-23T02:39:24;5.40;;;0.52;;
49842;SDS011;55559;48.898;9.184;2024-03-23T02:41:51;9.40;;;0.90;;
49842;SDS011;55559;48.898;9.184;2024-03-23T02:44:18;2.75;;;0.60;;
49842;SDS011;55559;48.898;9.184;2024-03-23T02:46:54;2.03;;;0.60;;
49842;SDS011;55559;48.898;9.184;2024-03-23T02:49:20;2.58;;;0.60;;
49842;SDS011;55559;48.898;9.184;2024-03-23T02:51:47;3.05;;;0.60;;
49842;SDS011;55559;48.898;9.184;2024-03-23T02:54:15;1.88;;;0.70;;
49842;SDS011;55559;48.898;9.184;2024-03-23T02:56:41;2.25;;;0.80;;
49842;SDS011;55559;48.898;9.184;2024-03-23T02:59:09;1.48;;;0.80;;
49842;SDS011;55559;48.898;9.184;2024-03-23T03:01:35;6.25;;;0.90;;
49842;SDS011;55559;48.898;9.184;2024-03-23T03:04:02;3.35;;;0.60;;
49842;SDS011;55559;48.898;9.184;2024-03-23T03:06:29;2.95;;;0.93;;
49842;SDS011;55559;48.898;9.184;2024-03-23T03:08:56;1.05;;;0.50;;
49842;SDS011;55559;48.898;9.184;2024-03-23T03:11:23;2.08;;;0.93;;
49842;SDS011;55559;48.898;9.184;2024-03-23T03:13:50;1.73;;;0.60;;
49842;SDS011;55559;48.898;9.184;2024-03-23T03:16:17;2.95;;;0.68;;
49842;SDS011;55559;48.898;9.184;2024-03-23T03:18:44;2.25;;;0.50;;
49842;SDS011;55559;48.898;9.184;2024-03-23T03:21:12;4.93;;;0.70;;
49842;SDS011;55559;48.898;9.184;2024-03-23T03:23:39;2.90;;;0.68;;
49842;SDS011;55559;48.898;9.184;2024-03-23T03:26:05;3.47;;;0.77;;
49842;SDS011;55559;48.898;9.184;2024-03-23T03:28:33;6.60;;;0.63;;
49842;SDS011;55559;48.898;9.184;2024-03-23T03:30:59;1.40;;;0.73;;
49842;SDS011;55559;48.898;9.184;2024-03-23T03:33:28;2.15;;;0.70;;
49842;SDS011;55559;48.898;9.184;2024-03-23T03:35:54;6.18;;;0.90;;
49842;SDS011;55559;48.898;9.184;2024-03-23T03:38:21;2.22;;;0.90;;
49842;SDS011;55559;48.898;9.184;2024-03-23T03:40:47;4.38;;;0.80;;
49842;SDS011;55559;48.898;9.184;2024-03-23T03:43:14;9.88;;;1.00;;
49842;SDS011;55559;48.898;9.184;2024-03-23T03:45:40;6.22;;;1.33;;
49842;SDS011;55559;48.898;9.184;2024-03-23T03:48:07;4.20;;;0.70;;
49842;SDS011;55559;48.898;9.184;2024-03-23T03:50:34;3.55;;;0.75;;
49842;SDS011;55559;48.898;9.184;2024-03-23T03:53:01;2.22;;;0.90;;
49842;SDS011;55559;48.898;9.184;2024-03-23T03:55:30;1.75;;;0.60;;
49842;SDS011;55559;48.898;9.184;2024-03-23T03:57:57;2.63;;;0.95;;
49842;SDS011;55559;48.898;9.184;2024-03-23T04:00:23;3.35;;;0.70;;
49842;SDS011;55559;48.898;9.184;2024-03-23T04:02:50;2.28;;;0.80;;
49842;SDS011;55559;48.898;9.184;2024-03-23T04:05:16;1.40;;;0.60;;
49842;SDS011;55559;48.898;9.184;2024-03-23T04:07:46;1.70;;;0.68;;
49842;SDS011;55559;48.898;9.184;2024-03-23T04:10:12;3.08;;;0.90;;
49842;SDS011;55559;48.898;9.184;2024-03-23T04:12:39;7.75;;;0.88;;
49842;SDS011;55559;48.898;9.184;2024-03-23T04:15:05;2.90;;;0.70;;
49842;SDS011;55559;48.898;9.184;2024-03-23T04:17:32;7.32;;;0.80;;
49842;SDS011;55559;48.898;9.184;2024-03-23T04:20:00;1.30;;;0.70;;
49842;SDS011;55559;48.898;9.184;2024-03-23T04:22:28;5.97;;;0.80;;
49842;SDS011;55559;48.898;9.184;2024-03-23T04:24:56;4.43;;;1.00;;
49842;SDS011;55559;48.898;9.184;2024-03-23T04:27:23;3.30;;;0.80;;
49842;SDS011;55559;48.898;9.184;2024-03-23T04:29:50;5.38;;;1.00;;
49842;SDS011;55559;48.898;9.184;2024-03-23T04:32:17;7.95;;;1.73;;
49842;SDS011;55559;48.898;9.184;2024-03-23T04:34:43;10.68;;;2.17;;
49842;SDS011;55559;48.898;9.184;2024-03-23T04:37:10;8.50;;;3.85;;
49842;SDS011;55559;48.898;9.184;2024-03-23T04:39:38;11.80;;;5.20;;
49842;SDS011;55559;48.898;9.184;2024-03-23T04:42:06;11.15;;;6.32;;
49842;SDS011;55559;48.898;9.184;2024-03-23T04:44:33;14.65;;;8.27;;
49842;SDS011;55559;48.898;9.184;2024-03-23T04:47:00;21.77;;;11.45;;
49842;SDS011;55559;48.898;9.184;2024-03-23T04:49:28;13.18;;;10.38;;
49842;SDS011;55559;48.898;9.184;2024-03-23T04:51:55;15.68;;;10.70;;
49842;SDS011;55559;48.898;9.184;2024-03-23T04:54:22;15.60;;;10.35;;
49842;SDS011;55559;48.898;9.184;2024-03-23T04:56:49;22.73;;;11.48;;
49842;SDS011;55559;48.898;9.184;2024-03-23T04:59:18;15.65;;;11.93;;
49842;SDS011;55559;48.898;9.184;2024-03-23T05:01:44;22.25;;;13.07;;
49842;SDS011;55559;48.898;9.184;2024-03-23T05:04:11;21.27;;;13.52;;
49842;SDS011;55559;48.898;9.184;2024-03-23T05:06:37;22.52;;;13.35;;
49842;SDS011;55559;48.898;9.184;2024-03-23T05:09:04;23.30;;;12.55;;
49842;SDS011;55559;48.898;9.184;2024-03-23T05:11:32;21.58;;;11.98;;
49842;SDS011;55559;48.898;9.184;2024-03-23T05:13:59;17.52;;;12.18;;
49842;SDS011;55559;48.898;9.184;2024-03-23T05:16:26;22.02;;;12.15;;
49842;SDS011;55559;48.898;9.184;2024-03-23T05:18:54;19.02;;;12.40;;
49842;SDS011;55559;48.898;9.184;2024-03-23T05:21:20;20.80;;;13.52;;
49842;SDS011;55559;48.898;9.184;2024-03-23T05:23:47;17.48;;;12.57;;
49842;SDS011;55559;48.898;9.184;2024-03-23T05:26:13;22.63;;;13.35;;
49842;SDS011;55559;48.898;9.184;2024-03-23T05:28:40;16.75;;;10.18;;
49842;SDS011;55559;48.898;9.184;2024-03-23T05:31:06;18.63;;;11.20;;
49842;SDS011;55559;48.898;9.184;2024-03-23T05:33:36;17.65;;;10.25;;
49842;SDS011;55559;48.898;9.184;2024-03-23T05:36:03;11.20;;;8.98;;
49842;SDS011;55559;48.898;9.184;2024-03-23T05:38:31;13.98;;;9.18;;
49842;SDS011;55559;48.898;9.184;2024-03-23T05:40:57;13.88;;;9.23;;
49842;SDS011;55559;48.898;9.184;2024-03-23T05:43:24;18.75;;;10.70;;
49842;SDS011;55559;48.898;9.184;2024-03-23T05:45:53;12.35;;;9.07;;
49842;SDS011;55559;48.898;9.184;2024-03-23T05:48:21;12.88;;;9.00;;
49842;SDS011;55559;48.898;9.184;2024-03-23T05:50:48;12.63;;;7.80;;
49842;SDS011;55559;48.898;9.184;2024-03-23T05:53:15;13.13;;;8.20;;
49842;SDS011;55559;48.898;9.184;2024-03-23T05:55:41;10.98;;;7.75;;
49842;SDS011;55559;48.898;9.184;2024-03-23T05:58:08;9.23;;;6.30;;
49842;SDS011;55559;48.898;9.184;2024-03-23T06:00:34;4.70;;;3.75;;
49842;SDS011;55559;48.898;9.184;2024-03-23T06:03:02;11.13;;;5.20;;
49842;SDS011;55559;48.898;9.184;2024-03-23T06:05:27;8.10;;;4.40;;
49842;SDS011;55559;48.898;9.184;2024-03-23T06:07:56;10.07;;;5.28;;
49842;SDS011;55559;48.898;9.184;2024-03-23T06:10:22;6.35;;;3.40;;
49842;SDS011;55559;48.898;9.184;2024-03-23T06:12:49;7.72;;;3.97;;
49842;SDS011;55559;48.898;9.184;2024-03-23T06:15:17;8.48;;;5.13;;
49842;SDS011;55559;48.898;9.184;2024-03-23T06:17:44;8.27;;;3.83;;
49842;SDS011;55559;48.898;9.184;2024-03-23T06:20:10;8.82;;;3.78;;
49842;SDS011;55559;48.898;9.184;2024-03-23T06:22:38;5.28;;;4.38;;
49842;SDS011;55559;48.898;9.184;2024-03-23T06:25:06;7.07;;;4.82;;
49842;SDS011;55559;48.898;9.184;2024-03-23T06:27:33;4.55;;;3.30;;
49842;SDS011;55559;48.898;9.184;2024-03-23T06:29:59;2.97;;;1.77;;
49842;SDS011;55559;48.898;9.184;2024-03-23T06:32:27;3.53;;;1.92;;
49842;SDS011;55559;48.898;9.184;2024-03-23T06:34:54;11.02;;;1.83;;
49842;SDS011;55559;48.898;9.184;2024-03-23T06:37:21;8.25;;;1.27;;
49842;SDS011;55559;48.898;9.184;2024-03-23T06:39:47;2.50;;;0.85;;
49842;SDS011;55559;48.898;9.184;2024-03-23T06:42:16;2.85;;;0.80;;
49842;SDS011;55559;48.898;9.184;2024-03-23T06:44:42;2.85;;;0.90;;
49842;SDS011;55559;48.898;9.184;2024-03-23T06:47:10;1.63;;;0.60;;
49842;SDS011;55559;48.898;9.184;2024-03-23T06:49:36;8.23;;;1.25;;
49842;SDS011;55559;48.898;9.184;2024-03-23T06:52:03;4.10;;;0.50;;
49842;SDS011;55559;48.898;9.184;2024-03-23T06:54:29;1.48;;;0.25;;
49842;SDS011;55559;48.898;9.184;2024-03-23T06:56:56;0.93;;;0.20;;
49842;SDS011;55559;48.898;9.184;2024-03-23T06:59:24;3.22;;;0.20;;
49842;SDS011;55559;48.898;9.184;2024-03-23T07:01:51;0.77;;;0.22;;
49842;SDS011;55559;48.898;9.184;2024-03-23T07:04:17;1.58;;;0.20;;
49842;SDS011;55559;48.898;9.184;2024-03-23T07:06:45;1.08;;;0.20;;
49842;SDS011;55559;48.898;9.184;2024-03-23T07:09:11;5.13;;;0.10;;
49842;SDS011;55559;48.898;9.184;2024-03-23T07:11:38;0.90;;;0.20;;
49842;SDS011;55559;48.898;9.184;2024-03-23T07:14:04;0.43;;;0.10;;
49842;SDS011;55559;48.898;9.184;2024-03-23T07:16:33;0.17;;;0.10;;
49842;SDS011;55559;48.898;9.184;2024-03-23T07:18:59;0.17;;;0.10;;
49842;SDS011;55559;48.898;9.184;2024-03-23T07:21:26;0.22;;;0.10;;
49842;SDS011;55559;48.898;9.184;2024-03-23T07:23:52;2.97;;;0.20;;
49842;SDS011;55559;48.898;9.184;2024-03-23T07:26:19;0.43;;;0.13;;
49842;SDS011;55559;48.898;9.184;2024-03-23T07:28:45;0.20;;;0.10;;
49842;SDS011;55559;48.898;9.184;2024-03-23T07:31:12;1.13;;;0.13;;
49842;SDS011;55559;48.898;9.184;2024-03-23T07:33:43;0.17;;;0.10;;
49842;SDS011;55559;48.898;9.184;2024-03-23T07:36:10;0.40;;;0.10;;
49842;SDS011;55559;48.898;9.184;2024-03-23T07:38:36;0.25;;;0.10;;
49842;SDS011;55559;48.898;9.184;2024-03-23T07:41:04;0.20;;;0.10;;
49842;SDS011;55559;48.898;9.184;2024-03-23T07:43:30;2.30;;;0.20;;
49842;SDS011;55559;48.898;9.184;2024-03-23T07:45:58;0.10;;;0.10;;
49842;SDS011;55559;48.898;9.184;2024-03-23T07:48:24;0.40;;;0.20;;
49842;SDS011;55559;48.898;9.184;2024-03-23T07:50:59;0.82;;;0.10;;
49842;SDS011;55559;48.898;9.184;2024-03-23T07:53:25;2.25;;;0.10;;
49842;SDS011;55559;48.898;9.184;2024-03-23T07:55:54;0.20;;;0.10;;
49842;SDS011;55559;48.898;9.184;2024-03-23T07:58:20;0.38;;;0.10;;
49842;SDS011;55559;48.898;9.184;2024-03-23T08:00:47;2.90;;;0.22;;
49842;SDS011;55559;48.898;9.184;2024-03-23T08:03:13;0.38;;;0.20;;
49842;SDS011;55559;48.898;9.184;2024-03-23T08:05:40;0.10;;;0.03;;
49842;SDS011;55559;48.898;9.184;2024-03-23T08:08:07;0.10;;;0.00;;
49842;SDS011;55559;48.898;9.184;2024-03-23T08:10:35;0.20;;;0.00;;
49842;SDS011;55559;48.898;9.184;2024-03-23T08:13:01;0.20;;;0.00;;
49842;SDS011;55559;48.898;9.184;2024-03-23T08:15:29;0.10;;;0.00;;
49842;SDS011;55559;48.898;9.184;2024-03-23T08:17:55;0.20;;;0.10;;
49842;SDS011;55559;48.898;9.184;2024-03-23T08:20:22;0.30;;;0.03;;
49842;SDS011;55559;48.898;9.184;2024-03-23T08:22:48;0.20;;;0.00;;
49842;SDS011;55559;48.898;9.184;2024-03-23T08:25:17;0.60;;;0.10;;
49842;SDS011;55559;48.898;9.184;2024-03-23T08:27:44;0.30;;;0.10;;
49842;SDS011;55559;48.898;9.184;2024-03-23T08:30:11;0.55;;;0.08;;
49842;SDS011;55559;48.898;9.184;2024-03-23T08:32:37;1.05;;;0.10;;
49842;SDS011;55559;48.898;9.184;2024-03-23T08:35:04;9.00;;;0.10;;
49842;SDS011;55559;48.898;9.184;2024-03-23T08:37:31;0.20;;;0.00;;
49842;SDS011;55559;48.898;9.184;2024-03-23T08:39:58;0.63;;;0.10;;
49842;SDS011;55559;48.898;9.184;2024-03-23T08:42:25;0.50;;;0.13;;
49842;SDS011;55559;48.898;9.184;2024-03-23T08:44:52;1.00;;;0.10;;
49842;SDS011;55559;48.898;9.184;2024-03-23T08:47:18;4.05;;;0.13;;
49842;SDS011;55559;48.898;9.184;2024-03-23T08:49:45;2.67;;;0.10;;
49842;SDS011;55559;48.898;9.184;2024-03-23T08:52:11;1.75;;;0.10;;
49842;SDS011;55559;48.898;9.184;2024-03-23T08:54:38;2.17;;;0.20;;
49842;SDS011;55559;48.898;9.184;2024-03-23T08:57:04;1.60;;;0.20;;
49842;SDS011;55559;48.898;9.184;2024-03-23T08:59:34;3.47;;;0.15;;
49842;SDS011;55559;48.898;9.184;2024-03-23T09:02:00;1.27;;;0.20;;
49842;SDS011;55559;48.898;9.184;2024-03-23T09:04:27;1.85;;;0.13;;
49842;SDS011;55559;48.898;9.184;2024-03-23T09:06:53;5.57;;;0.20;;
49842;SDS011;55559;48.898;9.184;2024-03-23T09:09:20;5.30;;;0.30;;
49842;SDS011;55559;48.898;9.184;2024-03-23T09:11:46;1.65;;;0.25;;
49842;SDS011;55559;48.898;9.184;2024-03-23T09:14:13;2.35;;;0.38;;
49842;SDS011;55559;48.898;9.184;2024-03-23T09:16:41;7.75;;;0.40;;
49842;SDS011;55559;48.898;9.184;2024-03-23T09:19:07;2.13;;;0.40;;
49842;SDS011;55559;48.898;9.184;2024-03-23T09:21:34;4.00;;;0.55;;
49842;SDS011;55559;48.898;9.184;2024-03-23T09:24:01;7.38;;;0.70;;
49842;SDS011;55559;48.898;9.184;2024-03-23T09:26:27;7.40;;;0.88;;
49842;SDS011;55559;48.898;9.184;2024-03-23T09:28:55;14.00;;;0.82;;
49842;SDS011;55559;48.898;9.184;2024-03-23T09:31:21;4.95;;;1.23;;
49842;SDS011;55559;48.898;9.184;2024-03-23T09:33:49;8.82;;;0.80;;
49842;SDS011;55559;48.898;9.184;2024-03-23T09:36:15;5.82;;;0.60;;
49842;SDS011;55559;48.898;9.184;2024-03-23T09:38:42;3.85;;;0.82;;
49842;SDS011;55559;48.898;9.184;2024-03-23T09:41:08;6.18;;;0.82;;
49842;SDS011;55559;48.898;9.184;2024-03-23T09:43:36;10.40;;;1.73;;
49842;SDS011;55559;48.898;9.184;2024-03-23T09:46:02;8.75;;;1.25;;
49842;SDS011;55559;48.898;9.184;2024-03-23T09:48:29;10.00;;;1.33;;
49842;SDS011;55559;48.898;9.184;2024-03-23T09:50:56;9.07;;;1.05;;
49842;SDS011;55559;48.898;9.184;2024-03-23T09:53:24;5.43;;;0.75;;
49842;SDS011;55559;48.898;9.184;2024-03-23T09:55:50;12.00;;;0.85;;
49842;SDS011;55559;48.898;9.184;2024-03-23T09:58:17;3.53;;;1.20;;
49842;SDS011;55559;48.898;9.184;2024-03-23T10:00:45;10.32;;;1.05;;
49842;SDS011;55559;48.898;9.184;2024-03-23T10:03:11;5.35;;;0.68;;
49842;SDS011;55559;48.898;9.184;2024-03-23T10:05:38;4.97;;;0.70;;
49842;SDS011;55559;48.898;9.184;2024-03-23T10:08:17;11.00;;;0.95;;
49842;SDS011;55559;48.898;9.184;2024-03-23T10:10:46;21.35;;;2.83;;
49842;SDS011;55559;48.898;9.184;2024-03-23T10:13:14;9.18;;;1.20;;
49842;SDS011;55559;48.898;9.184;2024-03-23T10:15:54;10.38;;;1.15;;
49842;SDS011;55559;48.898;9.184;2024-03-23T10:18:20;6.90;;;1.30;;
49842;SDS011;55559;48.898;9.184;2024-03-23T10:20:50;6.95;;;0.60;;
49842;SDS011;55559;48.898;9.184;2024-03-23T10:23:18;8.32;;;0.93;;
49842;SDS011;55559;48.898;9.184;2024-03-23T10:25:45;5.25;;;0.70;;
49842;SDS011;55559;48.898;9.184;2024-03-23T10:28:11;9.82;;;0.95;;
49842;SDS011;55559;48.898;9.184;2024-03-23T10:30:38;8.02;;;0.80;;
49842;SDS011;55559;48.898;9.184;2024-03-23T10:33:07;7.38;;;0.80;;
49842;SDS011;55559;48.898;9.184;2024-03-23T10:35:36;13.48;;;1.58;;
49842;SDS011;55559;48.898;9.184;2024-03-23T10:38:02;4.80;;;0.70;;
49842;SDS011;55559;48.898;9.184;2024-03-23T10:40:32;6.57;;;0.77;;
49842;SDS011;55559;48.898;9.184;2024-03-23T10:42:59;5.63;;;1.13;;
49842;SDS011;55559;48.898;9.184;2024-03-23T10:45:27;8.77;;;2.08;;
49842;SDS011;55559;48.898;9.184;2024-03-23T10:47:53;13.38;;;2.30;;
49842;SDS011;55559;48.898;9.184;2024-03-23T10:50:20;6.78;;;1.08;;
49842;SDS011;55559;48.898;9.184;2024-03-23T10:52:46;9.75;;;1.00;;
49842;SDS011;55559;48.898;9.184;2024-03-23T10:55:13;8.23;;;1.85;;
49842;SDS011;55559;48.898;9.184;2024-03-23T10:57:44;14.48;;;1.92;;
49842;SDS011;55559;48.898;9.184;2024-03-23T11:00:12;13.30;;;1.90;;
49842;SDS011;55559;48.898;9.184;2024-03-23T11:02:38;10.05;;;2.20;;
49842;SDS011;55559;48.898;9.184;2024-03-23T11:07:49;11.95;;;2.90;;
49842;SDS011;55559;48.898;9.184;2024-03-23T11:10:24;8.07;;;2.97;;
49842;SDS011;55559;48.898;9.184;2024-03-23T11:12:52;15.20;;;2.92;;
49842;SDS011;55559;48.898;9.184;2024-03-23T11:15:19;21.98;;;4.28;;
49842;SDS011;55559;48.898;9.184;2024-03-23T11:20:31;8.68;;;2.03;;
49842;SDS011;55559;48.898;9.184;2024-03-23T11:22:57;5.00;;;2.17;;
49842;SDS011;55559;48.898;9.184;2024-03-23T11:25:24;9.38;;;2.17;;
49842;SDS011;55559;48.898;9.184;2024-03-23T11:27:52;7.07;;;1.63;;
49842;SDS011;55559;48.898;9.184;2024-03-23T11:30:20;12.20;;;1.83;;
49842;SDS011;55559;48.898;9.184;2024-03-23T11:32:48;6.15;;;1.65;;
49842;SDS011;55559;48.898;9.184;2024-03-23T11:40:25;6.75;;;1.35;;
49842;SDS011;55559;48.898;9.184;2024-03-23T11:42:56;4.57;;;1.58;;
49842;SDS011;55559;48.898;9.184;2024-03-23T11:45:23;8.10;;;1.60;;
49842;SDS011;55559;48.898;9.184;2024-03-23T11:48:00;6.28;;;1.13;;
49842;SDS011;55559;48.898;9.184;2024-03-23T11:50:28;4.63;;;1.10;;
49842;SDS011;55559;48.898;9.184;2024-03-23T11:53:03;11.35;;;1.48;;
49842;SDS011;55559;48.898;9.184;2024-03-23T11:55:38;4.57;;;1.10;;
49842;SDS011;55559;48.898;9.184;2024-03-23T11:58:06;4.25;;;1.17;;
49842;SDS011;55559;48.898;9.184;2024-03-23T12:00:33;4.15;;;1.33;;
49842;SDS011;55559;48.898;9.184;2024-03-23T12:03:00;5.53;;;1.20;;
49842;SDS011;55559;48.898;9.184;2024-03-23T12:05:27;4.55;;;0.80;;
49842;SDS011;55559;48.898;9.184;2024-03-23T12:07:53;6.15;;;1.00;;
49842;SDS011;55559;48.898;9.184;2024-03-23T12:10:20;6.28;;;0.60;;
49842;SDS011;55559;48.898;9.184;2024-03-23T12:12:58;6.70;;;0.55;;
49842;SDS011;55559;48.898;9.184;2024-03-23T12:15:25;7.75;;;0.50;;
49842;SDS011;55559;48.898;9.184;2024-03-23T12:18:05;9.10;;;0.70;;
49842;SDS011;55559;48.898;9.184;2024-03-23T12:20:32;9.98;;;2.45;;
49842;SDS011;55559;48.898;9.184;2024-03-23T12:23:04;11.73;;;2.13;;
49842;SDS011;55559;48.898;9.184;2024-03-23T12:25:30;12.02;;;2.75;;
49842;SDS011;55559;48.898;9.184;2024-03-23T12:27:58;4.97;;;0.50;;
49842;SDS011;55559;48.898;9.184;2024-03-23T12:30:26;15.15;;;1.30;;
49842;SDS011;55559;48.898;9.184;2024-03-23T12:32:53;9.50;;;0.52;;
49842;SDS011;55559;48.898;9.184;2024-03-23T12:35:19;9.60;;;0.60;;
49842;SDS011;55559;48.898;9.184;2024-03-23T12:37:48;4.68;;;0.73;;
49842;SDS011;55559;48.898;9.184;2024-03-23T12:40:14;2.95;;;0.50;;
49842;SDS011;55559;48.898;9.184;2024-03-23T12:42:41;3.45;;;0.50;;
49842;SDS011;55559;48.898;9.184;2024-03-23T12:45:07;4.20;;;0.60;;
49842;SDS011;55559;48.898;9.184;2024-03-23T12:47:36;9.07;;;1.50;;
49842;SDS011;55559;48.898;9.184;2024-03-23T12:50:02;5.03;;;0.60;;
49842;SDS011;55559;48.898;9.184;2024-03-23T12:52:29;12.60;;;2.10;;
49842;SDS011;55559;48.898;9.184;2024-03-23T12:54:55;5.10;;;0.73;;
49842;SDS011;55559;48.898;9.184;2024-03-23T12:57:23;8.05;;;0.80;;
49842;SDS011;55559;48.898;9.184;2024-03-23T12:59:49;7.28;;;0.63;;
49842;SDS011;55559;48.898;9.184;2024-03-23T13:02:18;9.40;;;0.50;;
49842;SDS011;55559;48.898;9.184;2024-03-23T13:04:46;6.53;;;1.23;;
49842;SDS011;55559;48.898;9.184;2024-03-23T13:07:14;6.68;;;0.50;;
49842;SDS011;55559;48.898;9.184;2024-03-23T13:09:40;5.38;;;0.50;;
49842;SDS011;55559;48.898;9.184;2024-03-23T13:12:07;9.52;;;0.95;;
49842;SDS011;55559;48.898;9.184;2024-03-23T13:14:33;8.35;;;0.90;;
49842;SDS011;55559;48.898;9.184;2024-03-23T13:17:01;4.78;;;0.70;;
49842;SDS011;55559;48.898;9.184;2024-03-23T13:19:27;10.00;;;0.90;;
49842;SDS011;55559;48.898;9.184;2024-03-23T13:21:58;7.97;;;0.80;;
49842;SDS011;55559;48.898;9.184;2024-03-23T13:24:24;6.25;;;0.88;;
49842;SDS011;55559;48.898;9.184;2024-03-23T13:26:51;9.15;;;0.57;;
49842;SDS011;55559;48.898;9.184;2024-03-23T13:29:17;7.13;;;0.70;;
49842;SDS011;55559;48.898;9.184;2024-03-23T13:31:45;6.07;;;0.65;;
49842;SDS011;55559;48.898;9.184;2024-03-23T13:34:11;4.30;;;0.55;;
49842;SDS011;55559;48.898;9.184;2024-03-23T13:36:38;6.63;;;0.50;;
49842;SDS011;55559;48.898;9.184;2024-03-23T13:39:06;5.82;;;0.52;;
49842;SDS011;55559;48.898;9.184;2024-03-23T13:41:38;4.05;;;0.40;;
49842;SDS011;55559;48.898;9.184;2024-03-23T13:44:05;8.07;;;0.55;;
49842;SDS011;55559;48.898;9.184;2024-03-23T13:46:32;5.90;;;0.40;;
49842;SDS011;55559;48.898;9.184;2024-03-23T13:48:58;3.75;;;0.73;;
49842;SDS011;55559;48.898;9.184;2024-03-23T13:51:25;6.07;;;0.43;;
49842;SDS011;55559;48.898;9.184;2024-03-23T13:53:52;4.30;;;0.55;;
49842;SDS011;55559;48.898;9.184;2024-03-23T13:56:21;5.15;;;0.40;;
49842;SDS011;55559;48.898;9.184;2024-03-23T13:58:47;7.93;;;0.40;;
49842;SDS011;55559;48.898;9.184;2024-03-23T14:01:14;7.07;;;0.50;;
49842;SDS011;55559;48.898;9.184;2024-03-23T14:03:40;4.70;;;0.45;;
49842;SDS011;55559;48.898;9.184;2024-03-23T14:06:07;3.80;;;0.35;;
49842;SDS011;55559;48.898;9.184;2024-03-23T14:08:34;0.75;;;0.20;;
49842;SDS011;55559;48.898;9.184;2024-03-23T14:11:02;4.20;;;0.30;;
49842;SDS011;55559;48.898;9.184;2024-03-23T14:13:30;7.32;;;0.55;;
49842;SDS011;55559;48.898;9.184;2024-03-23T14:15:57;5.50;;;0.60;;
49842;SDS011;55559;48.898;9.184;2024-03-23T14:18:23;4.50;;;0.40;;
49842;SDS011;55559;48.898;9.184;2024-03-23T14:20:51;7.63;;;0.50;;
49842;SDS011;55559;48.898;9.184;2024-03-23T14:23:17;1.50;;;0.30;;
49842;SDS011;55559;48.898;9.184;2024-03-23T14:25:44;7.40;;;0.50;;
49842;SDS011;55559;48.898;9.184;2024-03-23T14:28:10;12.70;;;0.75;;
49842;SDS011;55559;48.898;9.184;2024-03-23T14:30:42;7.05;;;0.73;;
49842;SDS011;55559;48.898;9.184;2024-03-23T14:33:08;4.75;;;0.50;;
49842;SDS011;55559;48.898;9.184;2024-03-23T14:35:35;7.93;;;0.50;;
49842;SDS011;55559;48.898;9.184;2024-03-23T14:38:01;3.05;;;0.40;;
49842;SDS011;55559;48.898;9.184;2024-03-23T14:40:28;5.13;;;0.60;;
49842;SDS011;55559;48.898;9.184;2024-03-23T14:42:54;8.57;;;0.65;;
49842;SDS011;55559;48.898;9.184;2024-03-23T14:45:22;4.18;;;0.50;;
49842;SDS011;55559;48.898;9.184;2024-03-23T14:47:51;3.83;;;0.40;;
49842;SDS011;55559;48.898;9.184;2024-03-23T14:50:18;5.90;;;0.55;;
49842;SDS011;55559;48.898;9.184;2024-03-23T14:52:44;3.00;;;0.40;;
49842;SDS011;55559;48.898;9.184;2024-03-23T14:55:12;5.80;;;0.50;;
49842;SDS011;55559;48.898;9.184;2024-03-23T14:57:37;5.43;;;0.30;;
49842;SDS011;55559;48.898;9.184;2024-03-23T15:00:06;8.55;;;0.40;;
49842;SDS011;55559;48.898;9.184;2024-03-23T15:02:33;10.65;;;0.50;;
49842;SDS011;55559;48.898;9.184;2024-03-23T15:05:01;3.67;;;0.30;;
49842;SDS011;55559;48.898;9.184;2024-03-23T15:07:29;1.77;;;0.20;;
49842;SDS011;55559;48.898;9.184;2024-03-23T15:09:57;5.78;;;0.30;;
49842;SDS011;55559;48.898;9.184;2024-03-23T15:12:22;1.40;;;0.22;;
49842;SDS011;55559;48.898;9.184;2024-03-23T15:14:49;4.93;;;0.40;;
49842;SDS011;55559;48.898;9.184;2024-03-23T15:17:15;4.15;;;0.40;;
49842;SDS011;55559;48.898;9.184;2024-03-23T15:19:42;7.55;;;0.85;;
49842;SDS011;55559;48.898;9.184;2024-03-23T15:22:09;5.80;;;0.30;;
49842;SDS011;55559;48.898;9.184;2024-03-23T15:24:37;1.73;;;0.20;;
49842;SDS011;55559;48.898;9.184;2024-03-23T15:27:04;1.52;;;0.13;;
49842;SDS011;55559;48.898;9.184;2024-03-23T15:29:30;3.38;;;0.20;;
49842;SDS011;55559;48.898;9.184;2024-03-23T15:31:57;2.40;;;0.30;;
49842;SDS011;55559;48.898;9.184;2024-03-23T15:34:23;2.33;;;0.20;;
49842;SDS011;55559;48.898;9.184;2024-03-23T15:36:50;3.90;;;0.20;;
49842;SDS011;55559;48.898;9.184;2024-03-23T15:39:18;2.95;;;0.10;;
49842;SDS011;55559;48.898;9.184;2024-03-23T15:41:45;1.10;;;0.13;;
49842;SDS011;55559;48.898;9.184;2024-03-23T15:44:11;0.38;;;0.10;;
49842;SDS011;55559;48.898;9.184;2024-03-23T15:46:38;1.85;;;0.10;;
49842;SDS011;55559;48.898;9.184;2024-03-23T15:49:04;2.30;;;0.20;;
49842;SDS011;55559;48.898;9.184;2024-03-23T15:51:31;0.88;;;0.10;;